Time;durP1;ratioP1;P1;durP2;ratioP2;P2;SDS_P1;SDS_P2;PMS_P1;PMS_P2;Temp;Humidity;BMP_temperature;BMP_pressure;BME280_temperature;BME280_humidity;BME280_pressure;Samples;Min_cycle;Max_cycle;Signal;HPM_P1;HPM_P2
2022/03/28 00:00:29;;;;;;;11.23;7.47;;;;;;;;;;4504492;28;20037;-66
2022/03/28 00:02:41;;;;;;;10.33;7.10;;;;;;;;;;4504932;28;20026;-66
2022/03/28 00:04:52;;;;;;;11.13;7.45;;;;;;;;;;4497838;28;20038;-66
2022/03/28 00:07:02;;;;;;;10.53;7.13;;;;;;;;;;4502184;28;36115;-66
2022/03/28 00:09:13;;;;;;;11.50;8.07;;;;;;;;;;4504175;28;20036;-66
2022/03/28 00:11:23;;;;;;;11.63;7.77;;;;;;;;;;4504509;28;20312;-66
2022/03/28 00:13:35;;;;;;;11.37;7.40;;;;;;;;;;4505039;28;20040;-66
2022/03/28 00:15:46;;;;;;;10.52;7.40;;;;;;;;;;4504164;28;20046;-66
2022/03/28 00:17:56;;;;;;;10.73;7.30;;;;;;;;;;4480107;28;20042;-65
2022/03/28 00:20:09;;;;;;;11.30;7.60;;;;;;;;;;4504681;28;20040;-66
2022/03/28 00:22:20;;;;;;;10.68;7.63;;;;;;;;;;4504649;28;20034;-66
2022/03/28 00:24:30;;;;;;;10.23;6.77;;;;;;;;;;4503184;28;20471;-66
2022/03/28 00:26:41;;;;;;;10.57;7.37;;;;;;;;;;4505073;28;20497;-66
2022/03/28 00:28:51;;;;;;;10.70;6.97;;;;;;;;;;4504403;28;20042;-66
2022/03/28 00:31:02;;;;;;;9.73;6.70;;;;;;;;;;4504635;28;20581;-66
2022/03/28 00:33:12;;;;;;;10.43;7.30;;;;;;;;;;4497007;28;20038;-66
2022/03/28 00:35:24;;;;;;;11.67;6.93;;;;;;;;;;4503536;28;20057;-65
2022/03/28 00:37:37;;;;;;;10.85;7.20;;;;;;;;;;4504268;28;21211;-66
2022/03/28 00:39:48;;;;;;;10.00;6.75;;;;;;;;;;4504074;28;20078;-66
2022/03/28 00:41:58;;;;;;;10.47;6.77;;;;;;;;;;4504214;28;20038;-66
2022/03/28 00:44:09;;;;;;;11.00;6.50;;;;;;;;;;4504303;28;20026;-66
2022/03/28 00:46:19;;;;;;;10.50;6.80;;;;;;;;;;4503683;28;20058;-66
2022/03/28 00:48:30;;;;;;;9.97;6.40;;;;;;;;;;4494902;28;20161;-66
2022/03/28 00:50:41;;;;;;;11.63;7.13;;;;;;;;;;4502923;28;20045;-66
2022/03/28 00:52:51;;;;;;;11.02;7.47;;;;;;;;;;4503265;28;20072;-66
2022/03/28 00:55:03;;;;;;;12.10;7.90;;;;;;;;;;4496770;28;20177;-66
2022/03/28 00:57:13;;;;;;;;;;;;;;;;;;4502450;28;20584;-66
2022/03/28 00:59:24;;;;;;;10.05;6.40;;;;;;;;;;4504565;28;19940;-66
2022/03/28 01:01:34;;;;;;;10.63;7.07;;;;;;;;;;4502700;28;20038;-66
2022/03/28 01:03:45;;;;;;;12.07;8.17;;;;;;;;;;4485865;28;23723;-66
2022/03/28 01:05:55;;;;;;;12.00;7.50;;;;;;;;;;4504017;28;20721;-66
2022/03/28 01:08:06;;;;;;;10.13;7.33;;;;;;;;;;4504402;28;26622;-66
2022/03/28 01:10:16;;;;;;;10.20;7.07;;;;;;;;;;4502507;28;20061;-66
2022/03/28 01:12:30;;;;;;;11.90;7.30;;;;;;;;;;4503843;28;20042;-65
2022/03/28 01:14:41;;;;;;;12.05;7.85;;;;;;;;;;4485846;28;20034;-66
2022/03/28 01:19:21;;;;;;;9.80;6.60;;;;;;;;;;4501994;28;20030;-66
2022/03/28 01:21:31;;;;;;;10.55;7.07;;;;;;;;;;4502571;28;20038;-66
2022/03/28 01:23:42;;;;;;;10.23;6.67;;;;;;;;;;4503000;28;23912;-66
2022/03/28 01:25:54;;;;;;;10.35;7.40;;;;;;;;;;4502311;28;20037;-66
2022/03/28 01:28:05;;;;;;;10.77;7.35;;;;;;;;;;4502618;28;20046;-66
2022/03/28 01:30:15;;;;;;;12.73;7.80;;;;;;;;;;4502703;28;20758;-66
2022/03/28 01:32:25;;;;;;;11.43;7.93;;;;;;;;;;4502203;28;43461;-66
2022/03/28 01:34:36;;;;;;;11.63;8.17;;;;;;;;;;4501921;28;40346;-66
2022/03/28 01:36:47;;;;;;;11.73;7.77;;;;;;;;;;4501981;28;42110;-66
2022/03/28 01:38:58;;;;;;;11.27;7.43;;;;;;;;;;4502912;28;20041;-66
2022/03/28 01:41:08;;;;;;;10.60;7.17;;;;;;;;;;4502932;28;20520;-65
2022/03/28 01:43:20;;;;;;;11.90;7.37;;;;;;;;;;4502713;28;20728;-66
2022/03/28 01:45:30;;;;;;;11.00;7.43;;;;;;;;;;4502700;28;20034;-66
2022/03/28 01:47:41;;;;;;;11.53;7.37;;;;;;;;;;4501577;28;20033;-66
2022/03/28 01:49:52;;;;;;;11.55;7.55;;;;;;;;;;4487647;28;20046;-66
2022/03/28 01:52:03;;;;;;;10.73;6.60;;;;;;;;;;4503515;28;20082;-66
2022/03/28 01:54:13;;;;;;;11.53;7.80;;;;;;;;;;4502749;28;20026;-66
2022/03/28 01:56:24;;;;;;;11.02;7.80;;;;;;;;;;4485606;28;20150;-66
2022/03/28 01:58:34;;;;;;;10.67;7.43;;;;;;;;;;4496429;28;20108;-66
2022/03/28 02:00:45;;;;;;;10.50;7.27;;;;;;;;;;4501945;28;20038;-65
2022/03/28 02:02:56;;;;;;;10.93;7.43;;;;;;;;;;4501116;28;20030;-66
2022/03/28 02:05:11;;;;;;;11.63;7.70;;;;;;;;;;4503176;28;20111;-66
2022/03/28 02:07:21;;;;;;;10.65;7.38;;;;;;;;;;4501381;28;20061;-66
2022/03/28 02:09:32;;;;;;;10.13;6.93;;;;;;;;;;4502852;28;29071;-66
2022/03/28 02:11:42;;;;;;;10.80;7.43;;;;;;;;;;4502894;28;20084;-66
2022/03/28 02:13:53;;;;;;;11.03;7.20;;;;;;;;;;4503494;28;20026;-66
2022/03/28 02:16:04;;;;;;;11.53;7.97;;;;;;;;;;4502863;28;21032;-65
2022/03/28 02:18:14;;;;;;;10.90;7.22;;;;;;;;;;4502174;28;20120;-65
2022/03/28 02:20:24;;;;;;;12.00;8.43;;;;;;;;;;4502530;28;20108;-66
2022/03/28 02:22:36;;;;;;;12.17;8.33;;;;;;;;;;4502581;28;27772;-66
2022/03/28 02:24:46;;;;;;;11.45;7.72;;;;;;;;;;4501395;28;20077;-66
2022/03/28 02:26:56;;;;;;;11.00;7.67;;;;;;;;;;4502840;28;24128;-66
2022/03/28 02:29:07;;;;;;;10.90;7.10;;;;;;;;;;4501488;28;20945;-66
2022/03/28 02:31:17;;;;;;;11.97;8.37;;;;;;;;;;4503316;28;20069;-66
2022/03/28 02:33:28;;;;;;;10.67;7.13;;;;;;;;;;4503413;28;20495;-65
2022/03/28 02:35:38;;;;;;;10.47;7.37;;;;;;;;;;4503070;28;20513;-65
2022/03/28 02:37:49;;;;;;;11.17;7.17;;;;;;;;;;4503293;28;20034;-65
2022/03/28 02:39:59;;;;;;;11.50;7.20;;;;;;;;;;4502711;28;20617;-65
2022/03/28 02:42:10;;;;;;;10.47;7.17;;;;;;;;;;4501914;28;20268;-65
2022/03/28 02:44:20;;;;;;;10.20;6.80;;;;;;;;;;4501957;28;20041;-65
2022/03/28 02:46:31;;;;;;;10.30;6.97;;;;;;;;;;4503040;28;21511;-65
2022/03/28 02:48:41;;;;;;;10.13;6.87;;;;;;;;;;4502030;28;20053;-66
2022/03/28 02:50:52;;;;;;;10.40;6.80;;;;;;;;;;4500744;28;20065;-66
2022/03/28 02:53:02;;;;;;;10.20;6.70;;;;;;;;;;4503364;28;20041;-66
2022/03/28 02:55:14;;;;;;;10.37;6.90;;;;;;;;;;4502624;28;20049;-66
2022/03/28 02:57:24;;;;;;;10.98;7.05;;;;;;;;;;4502375;28;20034;-65
2022/03/28 02:59:35;;;;;;;10.10;6.90;;;;;;;;;;4502201;28;32272;-66
2022/03/28 03:01:46;;;;;;;11.07;7.50;;;;;;;;;;4502728;28;21524;-66
2022/03/28 03:03:56;;;;;;;;;;;;;;;;;;4503690;28;20108;-65
2022/03/28 03:06:07;;;;;;;9.65;6.82;;;;;;;;;;4503341;28;19944;-66
2022/03/28 03:08:18;;;;;;;10.73;7.25;;;;;;;;;;4503530;28;20037;-65
2022/03/28 03:10:28;;;;;;;10.77;7.33;;;;;;;;;;4502144;28;20034;-65
2022/03/28 03:12:39;;;;;;;10.00;6.40;;;;;;;;;;4502439;28;20026;-65
2022/03/28 03:14:50;;;;;;;11.20;7.03;;;;;;;;;;4502474;28;22978;-65
2022/03/28 03:17:02;;;;;;;10.40;6.57;;;;;;;;;;4502721;28;20026;-66
2022/03/28 03:19:12;;;;;;;9.73;6.68;;;;;;;;;;4503296;28;20042;-66
2022/03/28 03:21:23;;;;;;;10.97;7.13;;;;;;;;;;4505433;28;20033;-65
2022/03/28 03:23:33;;;;;;;10.80;7.30;;;;;;;;;;4504346;28;20757;-66
2022/03/28 03:25:44;;;;;;;10.50;7.00;;;;;;;;;;4505843;28;20034;-66
2022/03/28 03:27:54;;;;;;;11.43;7.13;;;;;;;;;;4505733;28;20569;-66
2022/03/28 03:30:09;;;;;;;10.67;6.80;;;;;;;;;;4498043;28;20209;-66
2022/03/28 03:32:20;;;;;;;11.20;7.63;;;;;;;;;;4504527;28;20040;-66
2022/03/28 03:34:31;;;;;;;10.87;7.40;;;;;;;;;;4503691;28;20525;-65
2022/03/28 03:36:42;;;;;;;10.55;7.03;;;;;;;;;;4497094;28;20034;-66
2022/03/28 03:38:53;;;;;;;10.57;7.47;;;;;;;;;;4504966;28;20048;-65
2022/03/28 03:41:03;;;;;;;10.90;7.25;;;;;;;;;;4505125;28;20028;-66
2022/03/28 03:43:13;;;;;;;10.27;6.77;;;;;;;;;;4505214;28;20042;-65
2022/03/28 03:45:24;;;;;;;8.07;5.50;;;;;;;;;;4502770;28;26292;-66
2022/03/28 03:47:35;;;;;;;8.23;5.23;;;;;;;;;;4504899;28;20042;-66
2022/03/28 03:49:46;;;;;;;8.43;5.72;;;;;;;;;;4503822;28;20033;-66
2022/03/28 03:51:56;;;;;;;9.77;6.60;;;;;;;;;;4504541;28;20616;-66
2022/03/28 03:54:06;;;;;;;10.47;6.70;;;;;;;;;;4504306;28;20089;-65
2022/03/28 03:56:17;;;;;;;10.63;7.27;;;;;;;;;;4504363;28;20045;-66
2022/03/28 03:58:27;;;;;;;9.30;6.67;;;;;;;;;;4505476;28;20034;-66
2022/03/28 04:00:39;;;;;;;10.33;7.03;;;;;;;;;;4504325;28;38256;-66
2022/03/28 04:02:50;;;;;;;10.20;7.10;;;;;;;;;;4503492;28;20085;-66
2022/03/28 04:05:01;;;;;;;10.05;6.63;;;;;;;;;;4505488;28;20837;-66
2022/03/28 04:07:11;;;;;;;11.40;7.20;;;;;;;;;;4505426;28;20084;-66
2022/03/28 04:09:22;;;;;;;10.43;6.80;;;;;;;;;;4504724;28;20042;-66
2022/03/28 04:11:32;;;;;;;11.03;7.33;;;;;;;;;;4519606;28;20912;-66
2022/03/28 04:13:43;;;;;;;11.97;7.10;;;;;;;;;;4505188;28;20033;-66
2022/03/28 04:15:53;;;;;;;9.60;6.60;;;;;;;;;;4503999;28;20454;-66
2022/03/28 04:18:04;;;;;;;10.20;6.77;;;;;;;;;;4501963;28;20624;-66
2022/03/28 04:20:15;;;;;;;9.53;6.50;;;;;;;;;;4504384;28;20081;-66
2022/03/28 04:22:26;;;;;;;9.90;6.45;;;;;;;;;;4503252;28;20165;-66
2022/03/28 04:24:37;;;;;;;10.20;6.80;;;;;;;;;;4504386;28;20024;-66
2022/03/28 04:26:47;;;;;;;10.15;6.85;;;;;;;;;;4502244;28;20046;-66
2022/03/28 04:28:58;;;;;;;9.30;6.33;;;;;;;;;;4503690;28;34492;-66
2022/03/28 04:31:09;;;;;;;9.93;6.33;;;;;;;;;;4504002;28;30413;-66
2022/03/28 04:33:19;;;;;;;10.35;6.80;;;;;;;;;;4504579;28;20048;-66
2022/03/28 04:35:30;;;;;;;9.17;6.07;;;;;;;;;;4504054;28;26487;-65
2022/03/28 04:37:41;;;;;;;10.13;6.57;;;;;;;;;;4504768;28;20383;-66
2022/03/28 04:39:52;;;;;;;;;;;;;;;;;;4504745;28;20797;-66
2022/03/28 04:42:02;;;;;;;9.55;6.63;;;;;;;;;;4504885;28;19917;-66
2022/03/28 04:44:13;;;;;;;10.17;6.40;;;;;;;;;;4504790;28;20034;-66
2022/03/28 04:46:24;;;;;;;11.27;6.83;;;;;;;;;;4502998;28;20030;-65
2022/03/28 04:48:34;;;;;;;12.40;8.35;;;;;;;;;;4504489;28;20034;-66
2022/03/28 04:50:46;;;;;;;11.87;7.77;;;;;;;;;;4503815;28;32291;-66
2022/03/28 04:52:56;;;;;;;10.45;6.82;;;;;;;;;;4504496;28;20070;-65
2022/03/28 04:55:07;;;;;;;9.10;6.17;;;;;;;;;;4503075;28;30239;-65
2022/03/28 04:57:18;;;;;;;10.93;6.63;;;;;;;;;;4504328;28;20500;-65
2022/03/28 04:59:28;;;;;;;10.07;6.70;;;;;;;;;;4502266;28;20038;-65
2022/03/28 05:01:39;;;;;;;9.73;6.70;;;;;;;;;;4505981;28;20047;-65
2022/03/28 05:03:49;;;;;;;10.87;7.23;;;;;;;;;;4504226;28;20022;-65
2022/03/28 05:06:00;;;;;;;9.43;6.23;;;;;;;;;;4504336;28;20033;-65
2022/03/28 05:08:10;;;;;;;10.87;6.73;;;;;;;;;;4504044;28;20041;-65
2022/03/28 05:10:21;;;;;;;10.03;6.77;;;;;;;;;;4504273;28;20034;-65
2022/03/28 05:12:32;;;;;;;10.77;6.73;;;;;;;;;;4503660;28;20037;-65
2022/03/28 05:14:42;;;;;;;10.63;7.13;;;;;;;;;;4503991;28;20600;-65
2022/03/28 05:16:53;;;;;;;10.40;7.00;;;;;;;;;;4504454;28;22562;-65
2022/03/28 05:19:03;;;;;;;10.77;6.90;;;;;;;;;;4503622;28;20041;-65
2022/03/28 05:21:14;;;;;;;10.70;7.07;;;;;;;;;;4503855;28;20165;-65
2022/03/28 05:23:24;;;;;;;9.80;6.23;;;;;;;;;;4503582;28;20156;-65
2022/03/28 05:25:35;;;;;;;9.27;6.07;;;;;;;;;;4502555;28;20121;-65
2022/03/28 05:27:46;;;;;;;10.87;6.40;;;;;;;;;;4503287;28;20037;-65
2022/03/28 05:29:58;;;;;;;11.18;7.00;;;;;;;;;;4501357;28;20653;-65
2022/03/28 05:32:10;;;;;;;10.40;5.88;;;;;;;;;;4502934;28;20731;-65
2022/03/28 05:34:20;;;;;;;10.65;6.80;;;;;;;;;;4500710;28;20033;-65
2022/03/28 05:36:31;;;;;;;9.90;6.30;;;;;;;;;;4502033;28;20045;-65
2022/03/28 05:38:42;;;;;;;10.40;6.83;;;;;;;;;;4503118;28;20093;-65
2022/03/28 05:40:55;;;;;;;11.93;7.30;;;;;;;;;;4500673;28;20046;-66
2022/03/28 05:43:05;;;;;;;11.27;7.45;;;;;;;;;;4500934;28;20041;-65
2022/03/28 05:45:15;;;;;;;11.90;6.23;;;;;;;;;;4500868;28;38529;-65
2022/03/28 05:47:26;;;;;;;10.63;6.03;;;;;;;;;;4501920;28;20033;-65
2022/03/28 05:49:37;;;;;;;9.37;6.03;;;;;;;;;;4500498;28;20049;-65
2022/03/28 05:51:47;;;;;;;11.60;6.40;;;;;;;;;;4501455;28;20034;-65
2022/03/28 05:53:57;;;;;;;8.57;5.80;;;;;;;;;;4501753;28;20282;-65
2022/03/28 05:56:08;;;;;;;7.80;4.90;;;;;;;;;;4502240;28;20485;-65
2022/03/28 05:58:18;;;;;;;9.50;5.60;;;;;;;;;;4502536;28;20439;-65
2022/03/28 06:00:29;;;;;;;10.47;6.00;;;;;;;;;;4502461;28;20033;-65
2022/03/28 06:02:40;;;;;;;10.17;6.37;;;;;;;;;;4501106;28;20034;-65
2022/03/28 06:04:50;;;;;;;9.55;6.38;;;;;;;;;;4502939;28;20061;-65
2022/03/28 06:07:01;;;;;;;11.20;7.43;;;;;;;;;;4502059;28;20121;-65
2022/03/28 06:09:11;;;;;;;10.40;7.43;;;;;;;;;;4501794;28;20030;-65
2022/03/28 06:11:22;;;;;;;14.33;10.07;;;;;;;;;;4502981;28;20497;-65
2022/03/28 06:13:33;;;;;;;13.73;9.77;;;;;;;;;;4503348;28;20030;-65
2022/03/28 06:15:44;;;;;;;11.68;8.25;;;;;;;;;;4518335;28;20048;-65
2022/03/28 06:17:55;;;;;;;12.77;8.10;;;;;;;;;;4470836;28;20533;-64
2022/03/28 06:20:06;;;;;;;11.32;7.40;;;;;;;;;;4502574;28;20596;-65
2022/03/28 06:22:17;;;;;;;13.32;8.00;;;;;;;;;;4503715;28;20025;-65
2022/03/28 06:24:27;;;;;;;12.27;8.10;;;;;;;;;;4502900;28;20486;-65
2022/03/28 06:26:37;;;;;;;11.50;7.73;;;;;;;;;;4501364;28;20038;-65
2022/03/28 06:28:49;;;;;;;12.23;8.80;;;;;;;;;;4501598;28;20037;-65
2022/03/28 06:31:01;;;;;;;13.93;9.73;;;;;;;;;;4501428;28;20030;-65
2022/03/28 06:33:11;;;;;;;12.77;9.13;;;;;;;;;;4502601;28;20050;-67
2022/03/28 06:35:22;;;;;;;15.30;10.10;;;;;;;;;;4502428;28;20121;-66
2022/03/28 06:37:32;;;;;;;13.17;9.50;;;;;;;;;;4501354;28;20073;-66
2022/03/28 06:39:43;;;;;;;13.53;9.30;;;;;;;;;;4502941;28;20038;-66
2022/03/28 06:41:53;;;;;;;15.90;10.30;;;;;;;;;;4484861;28;20045;-66
2022/03/28 06:44:05;;;;;;;13.10;9.47;;;;;;;;;;4502415;28;20116;-66
2022/03/28 06:46:15;;;;;;;13.90;9.32;;;;;;;;;;4517943;28;20037;-66
2022/03/28 06:48:26;;;;;;;12.60;8.47;;;;;;;;;;4493963;28;20061;-67
2022/03/28 06:50:37;;;;;;;15.67;10.47;;;;;;;;;;4517001;28;20037;-67
2022/03/28 06:52:47;;;;;;;15.50;9.53;;;;;;;;;;4502309;28;20030;-67
2022/03/28 06:54:58;;;;;;;15.07;10.17;;;;;;;;;;4504340;28;20042;-67
2022/03/28 06:57:09;;;;;;;15.80;10.73;;;;;;;;;;4505992;28;20521;-67
2022/03/28 06:59:20;;;;;;;13.70;10.00;;;;;;;;;;4503810;28;20041;-66
2022/03/28 07:01:30;;;;;;;13.73;9.15;;;;;;;;;;4506055;28;20045;-67
2022/03/28 07:03:41;;;;;;;14.57;9.10;;;;;;;;;;4498887;28;20902;-66
2022/03/28 07:05:51;;;;;;;13.37;8.90;;;;;;;;;;4504591;28;20042;-67
2022/03/28 07:08:02;;;;;;;13.60;9.07;;;;;;;;;;4505215;28;20033;-66
2022/03/28 07:10:16;;;;;;;12.80;8.57;;;;;;;;;;4505398;28;20597;-66
2022/03/28 07:12:27;;;;;;;13.32;8.63;;;;;;;;;;4501075;28;20616;-66
2022/03/28 07:14:37;;;;;;;12.93;8.10;;;;;;;;;;4504820;28;20061;-66
2022/03/28 07:16:47;;;;;;;12.40;7.67;;;;;;;;;;4504359;28;20058;-66
2022/03/28 07:18:58;;;;;;;12.70;8.83;;;;;;;;;;4502547;28;20072;-68
2022/03/28 07:21:09;;;;;;;10.93;7.47;;;;;;;;;;4505046;28;20083;-66
2022/03/28 07:23:19;;;;;;;11.60;7.63;;;;;;;;;;4504735;28;20061;-67
2022/03/28 07:25:30;;;;;;;12.20;8.07;;;;;;;;;;4506147;28;20501;-66
2022/03/28 07:27:41;;;;;;;12.57;8.23;;;;;;;;;;4505155;28;20334;-66
2022/03/28 07:29:51;;;;;;;12.43;8.13;;;;;;;;;;4505022;28;20042;-66
2022/03/28 07:32:02;;;;;;;12.90;8.80;;;;;;;;;;4504952;28;20379;-66
2022/03/28 07:34:32;;;;;;;12.93;8.37;;;;;;;;;;4504003;28;20095;-66
2022/03/28 07:36:43;;;;;;;13.18;8.45;;;;;;;;;;4505213;28;20053;-66
2022/03/28 07:38:53;;;;;;;11.43;7.47;;;;;;;;;;4504655;28;20781;-66
2022/03/28 07:41:04;;;;;;;12.13;8.40;;;;;;;;;;4504448;28;20041;-66
2022/03/28 07:43:16;;;;;;;13.50;8.77;;;;;;;;;;4505271;28;20037;-66
2022/03/28 07:45:26;;;;;;;12.88;8.05;;;;;;;;;;4504566;28;20989;-65
2022/03/28 07:47:37;;;;;;;12.97;8.60;;;;;;;;;;4504321;28;20042;-66
2022/03/28 07:49:48;;;;;;;13.40;8.85;;;;;;;;;;4502769;28;20037;-66
2022/03/28 07:51:59;;;;;;;13.70;9.37;;;;;;;;;;4504308;28;20029;-66
2022/03/28 07:54:11;;;;;;;12.82;9.02;;;;;;;;;;4504585;28;20338;-66
2022/03/28 07:56:22;;;;;;;12.35;8.07;;;;;;;;;;4501696;28;20123;-66
2022/03/28 07:58:32;;;;;;;15.87;9.43;;;;;;;;;;4504341;28;20042;-66
2022/03/28 08:00:43;;;;;;;14.77;8.80;;;;;;;;;;4502835;28;29569;-66
2022/03/28 08:02:53;;;;;;;13.00;8.50;;;;;;;;;;4504642;28;20882;-66
2022/03/28 08:05:05;;;;;;;13.83;9.27;;;;;;;;;;4504274;28;20327;-66
2022/03/28 08:07:16;;;;;;;12.90;9.07;;;;;;;;;;4492974;28;20510;-66
2022/03/28 08:09:26;;;;;;;13.40;8.40;;;;;;;;;;4504433;28;20033;-66
2022/03/28 08:11:37;;;;;;;13.20;9.23;;;;;;;;;;4503316;28;20042;-66
2022/03/28 08:13:47;;;;;;;14.57;9.00;;;;;;;;;;4504013;28;28968;-66
2022/03/28 08:15:58;;;;;;;11.23;8.10;;;;;;;;;;4504117;28;20053;-66
2022/03/28 08:18:08;;;;;;;12.80;8.80;;;;;;;;;;4502231;28;20050;-66
2022/03/28 08:20:19;;;;;;;14.57;8.67;;;;;;;;;;4504322;28;20038;-66
2022/03/28 08:22:29;;;;;;;14.47;8.43;;;;;;;;;;4496630;28;20126;-66
2022/03/28 08:24:40;;;;;;;13.20;8.27;;;;;;;;;;4502249;28;20261;-66
2022/03/28 08:26:51;;;;;;;11.85;8.43;;;;;;;;;;4503667;28;20037;-66
2022/03/28 08:29:03;;;;;;;14.43;8.43;;;;;;;;;;4502703;28;20045;-66
2022/03/28 08:31:14;;;;;;;13.07;8.48;;;;;;;;;;4504534;28;20033;-67
2022/03/28 08:33:24;;;;;;;11.87;8.17;;;;;;;;;;4503596;28;24156;-66
2022/03/28 08:35:35;;;;;;;13.20;8.67;;;;;;;;;;4503381;28;20054;-67
2022/03/28 08:37:46;;;;;;;12.68;8.13;;;;;;;;;;4504247;28;20042;-67
2022/03/28 08:39:56;;;;;;;12.23;8.20;;;;;;;;;;4503042;28;33638;-66
2022/03/28 08:42:07;;;;;;;11.57;7.53;;;;;;;;;;4504880;28;20799;-67
2022/03/28 08:44:19;;;;;;;11.63;7.67;;;;;;;;;;4504595;28;20046;-67
2022/03/28 08:46:30;;;;;;;11.93;7.80;;;;;;;;;;4503963;28;20061;-66
2022/03/28 08:48:42;;;;;;;11.88;7.72;;;;;;;;;;4503719;28;20561;-67
2022/03/28 08:50:54;;;;;;;12.43;7.72;;;;;;;;;;4495913;28;20573;-67
2022/03/28 08:53:06;;;;;;;11.55;7.90;;;;;;;;;;4504157;28;20733;-66
2022/03/28 08:55:18;;;;;;;11.27;7.60;;;;;;;;;;4504029;28;20042;-67
2022/03/28 08:57:29;;;;;;;11.75;8.00;;;;;;;;;;4503586;28;20034;-67
2022/03/28 08:59:39;;;;;;;12.00;7.60;;;;;;;;;;4503866;28;20045;-67
2022/03/28 09:01:50;;;;;;;11.43;7.70;;;;;;;;;;4502609;28;27164;-67
2022/03/28 09:04:08;;;;;;;10.57;7.47;;;;;;;;;;4504049;28;20034;-67
2022/03/28 09:06:34;;;;;;;11.68;7.65;;;;;;;;;;4502717;28;20030;-67
2022/03/28 09:08:44;;;;;;;11.23;7.70;;;;;;;;;;4503889;28;20549;-67
2022/03/28 09:10:55;;;;;;;12.33;8.13;;;;;;;;;;4504037;28;20086;-67
2022/03/28 09:13:08;;;;;;;11.63;8.00;;;;;;;;;;4504098;28;20072;-67
2022/03/28 09:15:18;;;;;;;12.32;8.07;;;;;;;;;;4501914;28;20116;-67
2022/03/28 09:17:29;;;;;;;12.10;7.97;;;;;;;;;;4503500;28;20288;-66
2022/03/28 09:19:52;;;;;;;13.13;8.13;;;;;;;;;;4503362;28;26811;-67
2022/03/28 09:22:10;;;;;;;12.20;8.20;;;;;;;;;;4503693;28;20038;-67
2022/03/28 09:24:30;;;;;;;11.38;7.78;;;;;;;;;;4519313;28;20045;-67
2022/03/28 09:26:40;;;;;;;11.68;8.05;;;;;;;;;;4504029;28;20520;-67
2022/03/28 09:29:02;;;;;;;12.13;7.87;;;;;;;;;;4502385;28;20041;-67
2022/03/28 09:31:25;;;;;;;11.40;7.25;;;;;;;;;;4503507;28;20034;-67
2022/03/28 09:34:08;;;;;;;12.63;8.32;;;;;;;;;;4501992;28;20048;-67
2022/03/28 09:36:53;;;;;;;11.65;8.07;;;;;;;;;;4503742;28;20140;-67
2022/03/28 09:39:05;;;;;;;12.70;8.45;;;;;;;;;;4502447;28;20723;-67
2022/03/28 09:41:16;;;;;;;12.27;8.80;;;;;;;;;;4486115;28;20029;-67
2022/03/28 09:43:30;;;;;;;12.90;8.77;;;;;;;;;;4500416;28;20089;-67
2022/03/28 09:45:42;;;;;;;12.30;8.27;;;;;;;;;;4503398;28;20025;-67
2022/03/28 09:48:00;;;;;;;13.00;8.30;;;;;;;;;;4502059;28;20094;-67
2022/03/28 09:50:11;;;;;;;12.35;8.48;;;;;;;;;;4518061;28;20037;-67
2022/03/28 09:52:28;;;;;;;13.17;8.63;;;;;;;;;;4503352;28;20065;-67
2022/03/28 09:55:06;;;;;;;11.73;8.40;;;;;;;;;;4503292;28;20041;-68
2022/03/28 09:57:22;;;;;;;14.23;9.70;;;;;;;;;;4501952;28;20073;-67
2022/03/28 09:59:37;;;;;;;13.45;8.60;;;;;;;;;;4503899;28;20022;-67
2022/03/28 10:01:48;;;;;;;12.38;8.82;;;;;;;;;;4498541;28;20038;-67
2022/03/28 10:04:03;;;;;;;13.53;9.10;;;;;;;;;;4501504;28;33001;-67
2022/03/28 10:06:14;;;;;;;12.18;7.93;;;;;;;;;;4503320;28;20038;-67
2022/03/28 10:08:27;;;;;;;13.15;8.73;;;;;;;;;;4502644;28;20673;-67
2022/03/28 10:10:37;;;;;;;12.98;8.73;;;;;;;;;;4502253;28;20113;-67
2022/03/28 10:12:47;;;;;;;14.47;9.50;;;;;;;;;;4501853;28;20033;-67
2022/03/28 10:14:58;;;;;;;13.87;8.97;;;;;;;;;;4501541;28;20174;-67
2022/03/28 10:17:09;;;;;;;15.45;9.68;;;;;;;;;;4502877;28;20050;-67
2022/03/28 10:19:19;;;;;;;14.43;9.40;;;;;;;;;;4502688;28;20038;-67
2022/03/28 10:21:34;;;;;;;13.17;9.30;;;;;;;;;;4519143;28;20038;-67
2022/03/28 10:24:01;;;;;;;13.77;9.45;;;;;;;;;;4503467;28;20038;-67
2022/03/28 10:26:13;;;;;;;13.45;9.02;;;;;;;;;;4502590;28;20041;-67
2022/03/28 10:28:23;;;;;;;13.68;9.43;;;;;;;;;;4500765;28;20588;-67
2022/03/28 10:30:34;;;;;;;14.53;9.27;;;;;;;;;;4501871;28;20038;-67
2022/03/28 10:32:44;;;;;;;14.43;9.40;;;;;;;;;;4501484;28;20340;-67
2022/03/28 10:34:56;;;;;;;12.77;8.50;;;;;;;;;;4502399;28;21740;-67
2022/03/28 10:37:27;;;;;;;15.88;10.20;;;;;;;;;;4503865;28;20041;-67
2022/03/28 10:39:38;;;;;;;14.85;9.57;;;;;;;;;;4502564;28;20137;-67
2022/03/28 10:41:48;;;;;;;13.33;8.83;;;;;;;;;;4502969;28;20030;-67
2022/03/28 10:44:03;;;;;;;16.37;10.53;;;;;;;;;;4486066;28;20042;-67
2022/03/28 10:46:14;;;;;;;15.88;10.00;;;;;;;;;;4501364;28;20797;-67
2022/03/28 10:48:40;;;;;;;15.00;9.82;;;;;;;;;;4501953;28;20034;-67
2022/03/28 10:50:51;;;;;;;15.82;10.07;;;;;;;;;;4501189;28;20597;-67
2022/03/28 10:53:02;;;;;;;;;;;;;;;;;;4501932;28;20034;-68
2022/03/28 10:55:13;;;;;;;15.48;10.25;;;;;;;;;;4500704;28;20574;-66
2022/03/28 10:57:26;;;;;;;14.63;10.00;;;;;;;;;;4501120;28;26721;-67
2022/03/28 10:59:36;;;;;;;14.38;10.23;;;;;;;;;;4483619;28;20039;-66
2022/03/28 11:01:49;;;;;;;16.70;10.47;;;;;;;;;;4487581;28;20744;-67
2022/03/28 11:04:09;;;;;;;16.35;10.52;;;;;;;;;;4501256;28;20033;-67
2022/03/28 11:07:05;;;;;;;15.38;10.32;;;;;;;;;;4485312;28;20042;-67
2022/03/28 11:09:47;;;;;;;14.75;9.98;;;;;;;;;;4503682;28;20038;-66
2022/03/28 11:12:00;;;;;;;14.75;10.20;;;;;;;;;;4501489;28;20407;-66
2022/03/28 11:14:15;;;;;;;17.20;10.57;;;;;;;;;;4499943;28;20141;-67
2022/03/28 11:16:54;;;;;;;16.00;10.60;;;;;;;;;;4501213;28;20046;-67
2022/03/28 11:19:36;;;;;;;16.20;11.07;;;;;;;;;;4498735;28;20042;-67
2022/03/28 11:22:04;;;;;;;15.17;10.47;;;;;;;;;;4504389;28;20042;-67
2022/03/28 11:24:44;;;;;;;17.40;11.40;;;;;;;;;;4501706;28;20158;-66
2022/03/28 11:26:57;;;;;;;17.45;11.32;;;;;;;;;;4502948;28;20038;-68
2022/03/28 11:29:07;;;;;;;15.40;10.63;;;;;;;;;;4501848;28;20030;-67
2022/03/28 11:31:18;;;;;;;15.40;10.50;;;;;;;;;;4502461;28;20042;-67
2022/03/28 11:33:34;;;;;;;16.97;11.40;;;;;;;;;;4501732;28;20080;-67
2022/03/28 11:36:01;;;;;;;17.25;11.35;;;;;;;;;;4501984;28;20034;-67
2022/03/28 11:38:12;;;;;;;16.70;11.15;;;;;;;;;;4502146;28;20038;-67
2022/03/28 11:40:22;;;;;;;16.80;11.77;;;;;;;;;;4500195;28;25831;-66
2022/03/28 11:42:35;;;;;;;17.77;11.60;;;;;;;;;;4503668;28;32397;-67
2022/03/28 11:44:45;;;;;;;18.85;12.00;;;;;;;;;;4490273;28;20088;-66
2022/03/28 11:47:02;;;;;;;18.20;12.77;;;;;;;;;;4505158;28;20069;-67
2022/03/28 11:49:13;;;;;;;18.05;12.18;;;;;;;;;;4487960;28;20041;-66
2022/03/28 11:51:29;;;;;;;18.57;12.33;;;;;;;;;;4504230;28;20045;-66
2022/03/28 11:53:39;;;;;;;17.75;11.63;;;;;;;;;;4504020;28;20113;-67
2022/03/28 11:55:55;;;;;;;17.73;12.43;;;;;;;;;;4504900;28;20480;-67
2022/03/28 11:58:19;;;;;;;18.48;12.32;;;;;;;;;;4503810;28;20120;-67
2022/03/28 12:00:29;;;;;;;19.25;12.38;;;;;;;;;;4504898;28;20026;-67
2022/03/28 12:02:52;;;;;;;16.63;11.47;;;;;;;;;;4504420;28;20037;-66
2022/03/28 12:05:02;;;;;;;18.05;12.10;;;;;;;;;;4503234;28;20165;-66
2022/03/28 12:07:13;;;;;;;16.77;12.30;;;;;;;;;;4502782;28;20044;-67
2022/03/28 12:09:24;;;;;;;18.40;12.17;;;;;;;;;;4504853;28;20494;-66
2022/03/28 12:11:36;;;;;;;18.97;12.63;;;;;;;;;;4504236;28;20552;-66
2022/03/28 12:13:47;;;;;;;18.88;12.32;;;;;;;;;;4505302;28;20034;-66
2022/03/28 12:15:58;;;;;;;18.37;12.07;;;;;;;;;;4504225;28;20077;-66
2022/03/28 12:18:09;;;;;;;19.75;12.25;;;;;;;;;;4487028;28;20101;-67
2022/03/28 12:20:26;;;;;;;18.55;12.20;;;;;;;;;;4497789;28;20041;-66
2022/03/28 12:22:44;;;;;;;19.75;12.00;;;;;;;;;;4502496;28;20585;-67
2022/03/28 12:24:56;;;;;;;17.67;12.45;;;;;;;;;;4503185;28;20045;-67
2022/03/28 12:27:07;;;;;;;18.30;11.95;;;;;;;;;;4504375;28;20107;-67
2022/03/28 12:29:18;;;;;;;17.07;11.30;;;;;;;;;;4502669;28;20057;-66
2022/03/28 12:31:30;;;;;;;17.17;11.10;;;;;;;;;;4504295;28;20038;-66
2022/03/28 12:33:42;;;;;;;17.45;11.48;;;;;;;;;;4501052;28;20172;-67
2022/03/28 12:36:00;;;;;;;16.30;10.93;;;;;;;;;;4485155;28;20039;-66
2022/03/28 12:38:17;;;;;;;16.38;11.15;;;;;;;;;;4503785;28;20067;-66
2022/03/28 12:40:28;;;;;;;18.60;11.25;;;;;;;;;;4502640;28;20042;-66
2022/03/28 12:42:42;;;;;;;15.63;10.75;;;;;;;;;;4504374;28;20134;-67
2022/03/28 12:44:54;;;;;;;15.45;10.95;;;;;;;;;;4502934;28;22064;-66
2022/03/28 12:47:05;;;;;;;17.20;10.80;;;;;;;;;;4503701;28;20119;-67
2022/03/28 12:49:18;;;;;;;17.30;11.07;;;;;;;;;;4503617;28;20571;-66
2022/03/28 12:51:33;;;;;;;16.38;10.15;;;;;;;;;;4501920;28;20075;-67
2022/03/28 12:53:44;;;;;;;16.23;10.65;;;;;;;;;;4504316;28;20030;-67
2022/03/28 12:56:09;;;;;;;14.90;10.60;;;;;;;;;;4503565;28;20034;-67
2022/03/28 12:58:32;;;;;;;16.02;11.02;;;;;;;;;;4504093;28;20033;-66
2022/03/28 13:00:43;;;;;;;16.73;11.02;;;;;;;;;;4502863;28;20318;-66
2022/03/28 13:02:54;;;;;;;15.43;10.20;;;;;;;;;;4488159;28;20072;-66
2022/03/28 13:05:15;;;;;;;15.20;10.00;;;;;;;;;;4504517;28;20079;-67